sensor_id;sensor_type;location;lat;lon;timestamp;P1;durP1;ratioP1;P2;durP2;ratioP2
8986;SDS011;4529;51.360;12.474;2023-02-28T01:37:03;4.60;;;2.80;;
8986;SDS011;4529;51.360;12.474;2023-02-28T01:42:08;3.43;;;2.90;;
8986;SDS011;4529;51.360;12.474;2023-02-28T01:47:10;4.30;;;3.10;;
8986;SDS011;4529;51.360;12.474;2023-02-28T01:52:13;3.87;;;3.20;;
8986;SDS011;4529;51.360;12.474;2023-02-28T01:57:17;3.70;;;2.70;;
8986;SDS011;4529;51.360;12.474;2023-02-28T02:02:20;3.73;;;3.10;;
8986;SDS011;4529;51.360;12.474;2023-02-28T02:07:24;3.70;;;2.97;;
8986;SDS011;4529;51.360;12.474;2023-02-28T02:12:33;4.47;;;2.90;;
8986;SDS011;4529;51.360;12.474;2023-02-28T02:17:52;4.80;;;3.00;;
8986;SDS011;4529;51.360;12.474;2023-02-28T02:23:02;4.23;;;2.70;;
8986;SDS011;4529;51.360;12.474;2023-02-28T02:39:29;4.00;;;2.97;;
8986;SDS011;4529;51.360;12.474;2023-02-28T02:44:47;5.53;;;2.80;;
8986;SDS011;4529;51.360;12.474;2023-02-28T02:49:50;4.07;;;2.87;;
8986;SDS011;4529;51.360;12.474;2023-02-28T02:54:54;4.57;;;2.83;;
8986;SDS011;4529;51.360;12.474;2023-02-28T02:59:57;4.27;;;2.93;;
8986;SDS011;4529;51.360;12.474;2023-02-28T03:05:01;5.47;;;3.07;;
8986;SDS011;4529;51.360;12.474;2023-02-28T03:10:25;4.07;;;2.93;;
8986;SDS011;4529;51.360;12.474;2023-02-28T03:15:22;4.23;;;2.73;;
8986;SDS011;4529;51.360;12.474;2023-02-28T03:26:25;5.03;;;3.20;;
8986;SDS011;4529;51.360;12.474;2023-02-28T03:36:38;4.47;;;3.10;;
8986;SDS011;4529;51.360;12.474;2023-02-28T03:41:47;4.73;;;3.10;;
8986;SDS011;4529;51.360;12.474;2023-02-28T03:47:07;3.43;;;3.07;;
8986;SDS011;4529;51.360;12.474;2023-02-28T03:52:21;4.33;;;3.30;;
8986;SDS011;4529;51.360;12.474;2023-02-28T03:57:32;3.90;;;3.03;;
8986;SDS011;4529;51.360;12.474;2023-02-28T04:02:32;4.00;;;3.10;;
8986;SDS011;4529;51.360;12.474;2023-02-28T04:07:36;5.23;;;3.13;;
8986;SDS011;4529;51.360;12.474;2023-02-28T04:12:40;3.97;;;2.73;;
8986;SDS011;4529;51.360;12.474;2023-02-28T04:17:43;7.13;;;2.73;;
8986;SDS011;4529;51.360;12.474;2023-02-28T04:22:47;4.73;;;2.70;;
8986;SDS011;4529;51.360;12.474;2023-02-28T04:27:50;3.73;;;2.50;;
8986;SDS011;4529;51.360;12.474;2023-02-28T04:32:53;3.03;;;2.47;;
8986;SDS011;4529;51.360;12.474;2023-02-28T04:37:58;4.63;;;2.40;;
8986;SDS011;4529;51.360;12.474;2023-02-28T04:43:02;3.63;;;2.70;;
8986;SDS011;4529;51.360;12.474;2023-02-28T04:48:05;3.80;;;2.77;;
8986;SDS011;4529;51.360;12.474;2023-02-28T04:53:09;4.97;;;2.90;;
8986;SDS011;4529;51.360;12.474;2023-02-28T04:58:13;3.97;;;2.53;;
8986;SDS011;4529;51.360;12.474;2023-02-28T05:03:17;3.90;;;2.53;;
8986;SDS011;4529;51.360;12.474;2023-02-28T05:08:20;3.93;;;2.60;;
8986;SDS011;4529;51.360;12.474;2023-02-28T05:13:39;4.17;;;2.60;;
8986;SDS011;4529;51.360;12.474;2023-02-28T05:18:42;2.93;;;2.47;;
8986;SDS011;4529;51.360;12.474;2023-02-28T05:23:46;3.87;;;2.87;;
8986;SDS011;4529;51.360;12.474;2023-02-28T05:28:50;3.53;;;2.80;;
8986;SDS011;4529;51.360;12.474;2023-02-28T05:33:53;4.13;;;2.73;;
8986;SDS011;4529;51.360;12.474;2023-02-28T05:38:57;6.90;;;3.07;;
8986;SDS011;4529;51.360;12.474;2023-02-28T05:44:03;6.10;;;3.30;;
8986;SDS011;4529;51.360;12.474;2023-02-28T05:49:07;4.50;;;3.23;;
8986;SDS011;4529;51.360;12.474;2023-02-28T05:54:11;4.43;;;3.37;;
8986;SDS011;4529;51.360;12.474;2023-02-28T05:59:15;3.50;;;2.90;;
8986;SDS011;4529;51.360;12.474;2023-02-28T06:04:20;5.67;;;3.53;;
8986;SDS011;4529;51.360;12.474;2023-02-28T06:09:23;4.87;;;3.70;;
8986;SDS011;4529;51.360;12.474;2023-02-28T06:14:29;4.53;;;3.87;;
8986;SDS011;4529;51.360;12.474;2023-02-28T06:19:33;4.77;;;3.40;;
8986;SDS011;4529;51.360;12.474;2023-02-28T06:24:36;8.20;;;3.90;;
8986;SDS011;4529;51.360;12.474;2023-02-28T06:29:40;6.03;;;3.60;;
8986;SDS011;4529;51.360;12.474;2023-02-28T06:34:44;5.63;;;3.47;;
8986;SDS011;4529;51.360;12.474;2023-02-28T06:39:47;5.53;;;3.70;;
8986;SDS011;4529;51.360;12.474;2023-02-28T06:44:51;5.93;;;4.03;;
8986;SDS011;4529;51.360;12.474;2023-02-28T06:49:54;5.87;;;4.07;;
8986;SDS011;4529;51.360;12.474;2023-02-28T06:54:58;7.80;;;4.20;;
8986;SDS011;4529;51.360;12.474;2023-02-28T07:00:03;7.73;;;3.97;;
8986;SDS011;4529;51.360;12.474;2023-02-28T07:05:05;7.03;;;3.90;;
8986;SDS011;4529;51.360;12.474;2023-02-28T07:10:09;1.57;;;1.47;;
8986;SDS011;4529;51.360;12.474;2023-02-28T07:15:13;1.50;;;1.37;;
8986;SDS011;4529;51.360;12.474;2023-02-28T07:20:17;2.07;;;1.93;;
8986;SDS011;4529;51.360;12.474;2023-02-28T07:25:22;2.97;;;1.93;;
8986;SDS011;4529;51.360;12.474;2023-02-28T07:30:28;1.13;;;1.07;;
8986;SDS011;4529;51.360;12.474;2023-02-28T07:35:32;1.57;;;1.43;;
8986;SDS011;4529;51.360;12.474;2023-02-28T07:40:36;8.70;;;3.90;;
8986;SDS011;4529;51.360;12.474;2023-02-28T07:45:45;5.00;;;3.60;;
8986;SDS011;4529;51.360;12.474;2023-02-28T07:50:55;5.30;;;3.60;;
8986;SDS011;4529;51.360;12.474;2023-02-28T07:55:59;5.90;;;3.67;;
8986;SDS011;4529;51.360;12.474;2023-02-28T08:01:05;6.37;;;3.90;;
8986;SDS011;4529;51.360;12.474;2023-02-28T08:06:14;6.60;;;3.53;;
8986;SDS011;4529;51.360;12.474;2023-02-28T08:11:11;6.17;;;3.50;;
8986;SDS011;4529;51.360;12.474;2023-02-28T08:16:20;4.67;;;3.57;;
8986;SDS011;4529;51.360;12.474;2023-02-28T08:21:24;4.23;;;3.33;;
8986;SDS011;4529;51.360;12.474;2023-02-28T08:26:27;5.17;;;3.37;;
8986;SDS011;4529;51.360;12.474;2023-02-28T08:31:30;7.10;;;3.63;;
8986;SDS011;4529;51.360;12.474;2023-02-28T08:36:34;6.10;;;3.27;;
8986;SDS011;4529;51.360;12.474;2023-02-28T08:41:37;5.13;;;3.10;;
8986;SDS011;4529;51.360;12.474;2023-02-28T08:46:41;5.93;;;3.50;;
8986;SDS011;4529;51.360;12.474;2023-02-28T08:51:45;4.67;;;3.13;;
8986;SDS011;4529;51.360;12.474;2023-02-28T08:56:49;4.70;;;3.20;;
8986;SDS011;4529;51.360;12.474;2023-02-28T09:01:52;5.63;;;3.30;;
8986;SDS011;4529;51.360;12.474;2023-02-28T09:06:56;4.90;;;3.00;;
8986;SDS011;4529;51.360;12.474;2023-02-28T09:11:59;4.47;;;3.43;;
8986;SDS011;4529;51.360;12.474;2023-02-28T09:17:03;3.90;;;3.50;;
8986;SDS011;4529;51.360;12.474;2023-02-28T09:22:06;6.93;;;3.23;;
8986;SDS011;4529;51.360;12.474;2023-02-28T09:27:10;6.37;;;3.60;;
8986;SDS011;4529;51.360;12.474;2023-02-28T09:32:13;5.33;;;3.93;;
8986;SDS011;4529;51.360;12.474;2023-02-28T09:37:17;6.17;;;3.40;;
8986;SDS011;4529;51.360;12.474;2023-02-28T09:42:21;4.23;;;3.80;;
8986;SDS011;4529;51.360;12.474;2023-02-28T09:47:32;4.00;;;3.40;;
8986;SDS011;4529;51.360;12.474;2023-02-28T09:52:34;4.50;;;3.50;;
8986;SDS011;4529;51.360;12.474;2023-02-28T09:57:38;6.37;;;3.47;;
8986;SDS011;4529;51.360;12.474;2023-02-28T10:08:00;3.73;;;3.10;;
8986;SDS011;4529;51.360;12.474;2023-02-28T10:13:02;4.77;;;3.63;;
8986;SDS011;4529;51.360;12.474;2023-02-28T10:18:05;3.90;;;3.40;;
8986;SDS011;4529;51.360;12.474;2023-02-28T10:23:10;3.40;;;3.10;;
8986;SDS011;4529;51.360;12.474;2023-02-28T10:28:15;6.57;;;3.47;;
8986;SDS011;4529;51.360;12.474;2023-02-28T10:33:33;5.03;;;3.50;;
8986;SDS011;4529;51.360;12.474;2023-02-28T10:38:35;5.57;;;3.80;;
8986;SDS011;4529;51.360;12.474;2023-02-28T10:43:38;6.07;;;3.57;;
8986;SDS011;4529;51.360;12.474;2023-02-28T10:48:41;6.47;;;3.77;;
8986;SDS011;4529;51.360;12.474;2023-02-28T10:53:51;6.10;;;3.70;;
8986;SDS011;4529;51.360;12.474;2023-02-28T10:59:20;6.17;;;3.70;;
8986;SDS011;4529;51.360;12.474;2023-02-28T11:04:18;5.87;;;3.70;;
8986;SDS011;4529;51.360;12.474;2023-02-28T11:09:28;5.83;;;3.83;;
8986;SDS011;4529;51.360;12.474;2023-02-28T11:14:39;5.67;;;3.70;;
8986;SDS011;4529;51.360;12.474;2023-02-28T11:19:45;5.17;;;3.97;;
8986;SDS011;4529;51.360;12.474;2023-02-28T11:24:49;6.03;;;3.67;;
8986;SDS011;4529;51.360;12.474;2023-02-28T11:29:52;6.23;;;4.07;;
8986;SDS011;4529;51.360;12.474;2023-02-28T11:35:18;6.70;;;4.27;;
8986;SDS011;4529;51.360;12.474;2023-02-28T11:40:17;5.53;;;4.00;;
8986;SDS011;4529;51.360;12.474;2023-02-28T11:45:28;5.00;;;3.93;;
8986;SDS011;4529;51.360;12.474;2023-02-28T11:56:30;5.57;;;4.60;;
8986;SDS011;4529;51.360;12.474;2023-02-28T12:01:46;5.93;;;4.87;;
8986;SDS011;4529;51.360;12.474;2023-02-28T12:07:39;5.57;;;4.53;;
8986;SDS011;4529;51.360;12.474;2023-02-28T12:28:57;8.93;;;5.40;;
8986;SDS011;4529;51.360;12.474;2023-02-28T12:34:07;7.13;;;5.63;;
8986;SDS011;4529;51.360;12.474;2023-02-28T12:39:20;8.57;;;5.00;;
8986;SDS011;4529;51.360;12.474;2023-02-28T12:49:52;9.57;;;5.60;;
8986;SDS011;4529;51.360;12.474;2023-02-28T12:55:21;9.00;;;5.53;;
8986;SDS011;4529;51.360;12.474;2023-02-28T13:00:49;8.33;;;;;
8986;SDS011;4529;51.360;12.474;2023-02-28T13:11:33;9.37;;;5.90;;
8986;SDS011;4529;51.360;12.474;2023-02-28T13:21:57;7.23;;;5.20;;
8986;SDS011;4529;51.360;12.474;2023-02-28T13:42:36;9.33;;;5.50;;
8986;SDS011;4529;51.360;12.474;2023-02-28T13:58:33;8.27;;;5.87;;
8986;SDS011;4529;51.360;12.474;2023-02-28T14:03:56;8.27;;;5.90;;
8986;SDS011;4529;51.360;12.474;2023-02-28T14:09:28;7.13;;;5.10;;
8986;SDS011;4529;51.360;12.474;2023-02-28T14:19:38;7.30;;;5.50;;
8986;SDS011;4529;51.360;12.474;2023-02-28T14:24:57;9.53;;;5.50;;
8986;SDS011;4529;51.360;12.474;2023-02-28T14:30:36;6.57;;;5.87;;
8986;SDS011;4529;51.360;12.474;2023-02-28T14:36:00;8.33;;;5.93;;
8986;SDS011;4529;51.360;12.474;2023-02-28T14:41:21;8.03;;;5.70;;
8986;SDS011;4529;51.360;12.474;2023-02-28T14:46:35;7.47;;;5.87;;
8986;SDS011;4529;51.360;12.474;2023-02-28T14:51:39;6.33;;;5.63;;
8986;SDS011;4529;51.360;12.474;2023-02-28T14:56:43;8.77;;;6.00;;
8986;SDS011;4529;51.360;12.474;2023-02-28T15:01:47;9.83;;;6.00;;
8986;SDS011;4529;51.360;12.474;2023-02-28T15:07:25;7.60;;;5.80;;
8986;SDS011;4529;51.360;12.474;2023-02-28T15:12:14;8.57;;;6.13;;
8986;SDS011;4529;51.360;12.474;2023-02-28T15:17:20;8.17;;;5.87;;
8986;SDS011;4529;51.360;12.474;2023-02-28T15:22:34;7.30;;;5.83;;
8986;SDS011;4529;51.360;12.474;2023-02-28T15:27:29;7.13;;;5.60;;
8986;SDS011;4529;51.360;12.474;2023-02-28T15:32:36;8.73;;;6.10;;
8986;SDS011;4529;51.360;12.474;2023-02-28T15:37:40;8.17;;;5.70;;
8986;SDS011;4529;51.360;12.474;2023-02-28T15:42:42;9.30;;;6.00;;
8986;SDS011;4529;51.360;12.474;2023-02-28T15:47:45;7.93;;;5.70;;
8986;SDS011;4529;51.360;12.474;2023-02-28T15:52:49;6.23;;;5.53;;
8986;SDS011;4529;51.360;12.474;2023-02-28T15:57:54;8.37;;;5.57;;
8986;SDS011;4529;51.360;12.474;2023-02-28T16:02:56;7.87;;;5.80;;
8986;SDS011;4529;51.360;12.474;2023-02-28T16:08:10;8.90;;;5.97;;
8986;SDS011;4529;51.360;12.474;2023-02-28T16:13:03;7.43;;;5.47;;
8986;SDS011;4529;51.360;12.474;2023-02-28T16:18:07;10.80;;;6.13;;
8986;SDS011;4529;51.360;12.474;2023-02-28T16:23:10;7.43;;;5.90;;
8986;SDS011;4529;51.360;12.474;2023-02-28T16:28:19;7.23;;;5.97;;
8986;SDS011;4529;51.360;12.474;2023-02-28T16:33:24;9.03;;;6.13;;
8986;SDS011;4529;51.360;12.474;2023-02-28T16:38:30;8.40;;;5.90;;
8986;SDS011;4529;51.360;12.474;2023-02-28T16:43:34;10.43;;;5.90;;
8986;SDS011;4529;51.360;12.474;2023-02-28T16:48:37;10.50;;;6.10;;
8986;SDS011;4529;51.360;12.474;2023-02-28T16:53:41;11.17;;;6.50;;
8986;SDS011;4529;51.360;12.474;2023-02-28T16:58:46;8.43;;;6.60;;
8986;SDS011;4529;51.360;12.474;2023-02-28T17:03:49;8.17;;;6.43;;
8986;SDS011;4529;51.360;12.474;2023-02-28T17:08:53;10.70;;;7.23;;
8986;SDS011;4529;51.360;12.474;2023-02-28T17:13:57;10.07;;;6.77;;
8986;SDS011;4529;51.360;12.474;2023-02-28T17:19:02;8.87;;;6.60;;
8986;SDS011;4529;51.360;12.474;2023-02-28T17:24:04;11.47;;;6.90;;
8986;SDS011;4529;51.360;12.474;2023-02-28T17:29:26;12.93;;;7.50;;
8986;SDS011;4529;51.360;12.474;2023-02-28T17:34:19;11.23;;;6.90;;
8986;SDS011;4529;51.360;12.474;2023-02-28T17:39:23;9.17;;;6.80;;
8986;SDS011;4529;51.360;12.474;2023-02-28T17:44:26;10.67;;;7.63;;
8986;SDS011;4529;51.360;12.474;2023-02-28T17:49:30;12.67;;;7.90;;
8986;SDS011;4529;51.360;12.474;2023-02-28T17:54:33;10.13;;;7.13;;
8986;SDS011;4529;51.360;12.474;2023-02-28T17:59:37;13.00;;;7.50;;
8986;SDS011;4529;51.360;12.474;2023-02-28T18:04:40;10.87;;;7.07;;
8986;SDS011;4529;51.360;12.474;2023-02-28T18:09:50;10.67;;;7.43;;
8986;SDS011;4529;51.360;12.474;2023-02-28T18:14:53;11.73;;;8.23;;
8986;SDS011;4529;51.360;12.474;2023-02-28T18:19:57;15.07;;;8.20;;
8986;SDS011;4529;51.360;12.474;2023-02-28T18:25:02;13.80;;;9.80;;
8986;SDS011;4529;51.360;12.474;2023-02-28T18:30:05;14.53;;;10.23;;
8986;SDS011;4529;51.360;12.474;2023-02-28T18:35:08;16.40;;;10.37;;
8986;SDS011;4529;51.360;12.474;2023-02-28T18:40:17;14.80;;;9.37;;
8986;SDS011;4529;51.360;12.474;2023-02-28T18:45:21;18.37;;;10.70;;
8986;SDS011;4529;51.360;12.474;2023-02-28T18:50:24;15.10;;;9.83;;
8986;SDS011;4529;51.360;12.474;2023-02-28T18:55:28;15.27;;;9.10;;
8986;SDS011;4529;51.360;12.474;2023-02-28T19:00:32;14.13;;;9.43;;
8986;SDS011;4529;51.360;12.474;2023-02-28T19:05:36;17.60;;;9.70;;
8986;SDS011;4529;51.360;12.474;2023-02-28T19:10:40;17.93;;;9.67;;
8986;SDS011;4529;51.360;12.474;2023-02-28T19:15:43;15.80;;;9.73;;
8986;SDS011;4529;51.360;12.474;2023-02-28T19:20:47;16.07;;;8.73;;
8986;SDS011;4529;51.360;12.474;2023-02-28T19:25:50;17.90;;;8.97;;
8986;SDS011;4529;51.360;12.474;2023-02-28T19:30:54;13.00;;;8.37;;
8986;SDS011;4529;51.360;12.474;2023-02-28T19:35:58;14.20;;;8.80;;
8986;SDS011;4529;51.360;12.474;2023-02-28T19:41:03;12.97;;;8.03;;
8986;SDS011;4529;51.360;12.474;2023-02-28T19:46:06;14.17;;;8.23;;
8986;SDS011;4529;51.360;12.474;2023-02-28T19:51:11;14.70;;;8.73;;
8986;SDS011;4529;51.360;12.474;2023-02-28T19:56:14;14.37;;;9.00;;
8986;SDS011;4529;51.360;12.474;2023-02-28T20:01:19;13.97;;;9.00;;
8986;SDS011;4529;51.360;12.474;2023-02-28T20:06:23;16.23;;;9.10;;
8986;SDS011;4529;51.360;12.474;2023-02-28T20:11:27;16.43;;;9.87;;
8986;SDS011;4529;51.360;12.474;2023-02-28T20:16:31;16.13;;;9.30;;
8986;SDS011;4529;51.360;12.474;2023-02-28T20:21:34;14.87;;;8.90;;
8986;SDS011;4529;51.360;12.474;2023-02-28T20:26:38;18.43;;;9.70;;
8986;SDS011;4529;51.360;12.474;2023-02-28T20:31:41;16.60;;;9.90;;
8986;SDS011;4529;51.360;12.474;2023-02-28T20:36:45;18.10;;;10.67;;
8986;SDS011;4529;51.360;12.474;2023-02-28T20:41:48;18.90;;;10.50;;
8986;SDS011;4529;51.360;12.474;2023-02-28T20:46:52;20.57;;;10.80;;
8986;SDS011;4529;51.360;12.474;2023-02-28T20:51:56;18.40;;;10.57;;
8986;SDS011;4529;51.360;12.474;2023-02-28T20:57:01;15.10;;;9.77;;
8986;SDS011;4529;51.360;12.474;2023-02-28T21:02:05;19.93;;;10.37;;
8986;SDS011;4529;51.360;12.474;2023-02-28T21:07:08;17.30;;;9.57;;
8986;SDS011;4529;51.360;12.474;2023-02-28T21:12:12;16.07;;;10.20;;
8986;SDS011;4529;51.360;12.474;2023-02-28T21:17:16;15.60;;;9.57;;
8986;SDS011;4529;51.360;12.474;2023-02-28T21:22:20;17.30;;;9.80;;
8986;SDS011;4529;51.360;12.474;2023-02-28T21:27:24;16.87;;;9.40;;
8986;SDS011;4529;51.360;12.474;2023-02-28T21:32:28;19.87;;;9.23;;
8986;SDS011;4529;51.360;12.474;2023-02-28T21:37:32;14.90;;;9.57;;
8986;SDS011;4529;51.360;12.474;2023-02-28T21:42:36;15.43;;;9.27;;
8986;SDS011;4529;51.360;12.474;2023-02-28T21:47:40;14.43;;;9.50;;
8986;SDS011;4529;51.360;12.474;2023-02-28T21:52:44;15.03;;;9.50;;
8986;SDS011;4529;51.360;12.474;2023-02-28T21:57:49;16.03;;;9.13;;
8986;SDS011;4529;51.360;12.474;2023-02-28T22:02:52;12.87;;;8.63;;
8986;SDS011;4529;51.360;12.474;2023-02-28T22:08:04;15.20;;;8.60;;
8986;SDS011;4529;51.360;12.474;2023-02-28T22:13:08;15.67;;;9.03;;
8986;SDS011;4529;51.360;12.474;2023-02-28T22:18:11;19.40;;;9.60;;
8986;SDS011;4529;51.360;12.474;2023-02-28T22:23:15;15.33;;;9.20;;
8986;SDS011;4529;51.360;12.474;2023-02-28T22:28:21;15.87;;;8.70;;
8986;SDS011;4529;51.360;12.474;2023-02-28T22:33:25;16.93;;;8.43;;
8986;SDS011;4529;51.360;12.474;2023-02-28T22:38:28;17.00;;;8.30;;
8986;SDS011;4529;51.360;12.474;2023-02-28T22:43:32;20.63;;;9.00;;
8986;SDS011;4529;51.360;12.474;2023-02-28T22:48:35;14.43;;;8.63;;
8986;SDS011;4529;51.360;12.474;2023-02-28T22:53:39;15.50;;;8.23;;
8986;SDS011;4529;51.360;12.474;2023-02-28T22:58:42;16.27;;;8.60;;
8986;SDS011;4529;51.360;12.474;2023-02-28T23:03:46;15.17;;;8.13;;
8986;SDS011;4529;51.360;12.474;2023-02-28T23:08:50;17.20;;;9.13;;
8986;SDS011;4529;51.360;12.474;2023-02-28T23:13:53;12.77;;;8.10;;
8986;SDS011;4529;51.360;12.474;2023-02-28T23:18:56;14.10;;;8.10;;
8986;SDS011;4529;51.360;12.474;2023-02-28T23:24:00;16.00;;;7.53;;
8986;SDS011;4529;51.360;12.474;2023-02-28T23:29:03;11.23;;;7.63;;
8986;SDS011;4529;51.360;12.474;2023-02-28T23:34:06;13.83;;;7.33;;
8986;SDS011;4529;51.360;12.474;2023-02-28T23:39:11;12.47;;;7.60;;
8986;SDS011;4529;51.360;12.474;2023-02-28T23:44:13;15.43;;;8.00;;
8986;SDS011;4529;51.360;12.474;2023-02-28T23:49:18;12.87;;;8.07;;
8986;SDS011;4529;51.360;12.474;2023-02-28T23:54:22;12.83;;;7.00;;
8986;SDS011;4529;51.360;12.474;2023-02-28T23:59:26;12.30;;;6.87;;
